sensor_id;sensor_type;location;lat;lon;timestamp;P1;durP1;ratioP1;P2;durP2;ratioP2
17052;SDS011;8643;48.824;11.422;2024-01-06T00:00:57;21.40;;;11.20;;
17052;SDS011;8643;48.824;11.422;2024-01-06T00:03:26;21.20;;;13.03;;
17052;SDS011;8643;48.824;11.422;2024-01-06T00:05:54;18.37;;;11.73;;
17052;SDS011;8643;48.824;11.422;2024-01-06T00:08:23;20.97;;;11.80;;
17052;SDS011;8643;48.824;11.422;2024-01-06T00:10:55;18.17;;;11.23;;
17052;SDS011;8643;48.824;11.422;2024-01-06T00:13:59;22.03;;;11.53;;
17052;SDS011;8643;48.824;11.422;2024-01-06T00:16:27;21.50;;;12.00;;
17052;SDS011;8643;48.824;11.422;2024-01-06T00:18:56;19.23;;;11.27;;
17052;SDS011;8643;48.824;11.422;2024-01-06T00:21:26;18.83;;;12.07;;
17052;SDS011;8643;48.824;11.422;2024-01-06T00:23:54;20.00;;;11.63;;
17052;SDS011;8643;48.824;11.422;2024-01-06T00:26:23;22.20;;;12.90;;
17052;SDS011;8643;48.824;11.422;2024-01-06T00:28:51;25.27;;;12.63;;
17052;SDS011;8643;48.824;11.422;2024-01-06T00:31:21;20.03;;;12.17;;
17052;SDS011;8643;48.824;11.422;2024-01-06T00:33:50;22.80;;;12.60;;
17052;SDS011;8643;48.824;11.422;2024-01-06T00:36:19;24.43;;;13.00;;
17052;SDS011;8643;48.824;11.422;2024-01-06T00:38:47;21.97;;;12.97;;
17052;SDS011;8643;48.824;11.422;2024-01-06T00:41:16;23.07;;;14.53;;
17052;SDS011;8643;48.824;11.422;2024-01-06T00:43:45;24.50;;;14.50;;
17052;SDS011;8643;48.824;11.422;2024-01-06T00:46:13;20.03;;;13.60;;
17052;SDS011;8643;48.824;11.422;2024-01-06T00:48:43;21.87;;;13.23;;
17052;SDS011;8643;48.824;11.422;2024-01-06T00:51:12;22.77;;;14.27;;
17052;SDS011;8643;48.824;11.422;2024-01-06T00:53:40;25.17;;;15.13;;
17052;SDS011;8643;48.824;11.422;2024-01-06T00:56:09;26.70;;;14.47;;
17052;SDS011;8643;48.824;11.422;2024-01-06T00:58:37;28.10;;;15.17;;
17052;SDS011;8643;48.824;11.422;2024-01-06T01:01:06;26.50;;;14.20;;
17052;SDS011;8643;48.824;11.422;2024-01-06T01:03:34;23.00;;;14.27;;
17052;SDS011;8643;48.824;11.422;2024-01-06T01:06:04;34.77;;;16.90;;
17052;SDS011;8643;48.824;11.422;2024-01-06T01:08:33;25.77;;;15.07;;
17052;SDS011;8643;48.824;11.422;2024-01-06T01:11:01;26.47;;;14.30;;
17052;SDS011;8643;48.824;11.422;2024-01-06T01:13:31;24.40;;;13.87;;
17052;SDS011;8643;48.824;11.422;2024-01-06T01:15:59;24.13;;;13.83;;
17052;SDS011;8643;48.824;11.422;2024-01-06T01:18:27;27.07;;;14.93;;
17052;SDS011;8643;48.824;11.422;2024-01-06T01:20:56;26.03;;;14.27;;
17052;SDS011;8643;48.824;11.422;2024-01-06T01:23:25;25.63;;;15.23;;
17052;SDS011;8643;48.824;11.422;2024-01-06T01:25:54;22.57;;;13.60;;
17052;SDS011;8643;48.824;11.422;2024-01-06T01:28:22;23.67;;;14.43;;
17052;SDS011;8643;48.824;11.422;2024-01-06T01:30:51;27.43;;;15.20;;
17052;SDS011;8643;48.824;11.422;2024-01-06T01:33:20;27.97;;;15.27;;
17052;SDS011;8643;48.824;11.422;2024-01-06T01:35:48;24.37;;;14.80;;
17052;SDS011;8643;48.824;11.422;2024-01-06T01:38:17;26.63;;;15.37;;
17052;SDS011;8643;48.824;11.422;2024-01-06T01:40:47;27.70;;;15.97;;
17052;SDS011;8643;48.824;11.422;2024-01-06T01:43:15;28.10;;;16.23;;
17052;SDS011;8643;48.824;11.422;2024-01-06T01:45:45;24.67;;;15.00;;
17052;SDS011;8643;48.824;11.422;2024-01-06T01:48:20;26.93;;;15.87;;
17052;SDS011;8643;48.824;11.422;2024-01-06T01:50:51;28.97;;;16.47;;
17052;SDS011;8643;48.824;11.422;2024-01-06T01:53:22;33.57;;;17.20;;
17052;SDS011;8643;48.824;11.422;2024-01-06T01:55:54;33.00;;;17.37;;
17052;SDS011;8643;48.824;11.422;2024-01-06T01:58:23;29.10;;;17.13;;
17052;SDS011;8643;48.824;11.422;2024-01-06T02:00:51;34.40;;;18.83;;
17052;SDS011;8643;48.824;11.422;2024-01-06T02:03:21;33.77;;;18.80;;
17052;SDS011;8643;48.824;11.422;2024-01-06T02:05:52;33.83;;;18.97;;
17052;SDS011;8643;48.824;11.422;2024-01-06T02:08:21;37.60;;;19.07;;
17052;SDS011;8643;48.824;11.422;2024-01-06T02:10:51;42.20;;;20.30;;
17052;SDS011;8643;48.824;11.422;2024-01-06T02:13:23;37.57;;;18.70;;
17052;SDS011;8643;48.824;11.422;2024-01-06T02:15:51;32.20;;;18.23;;
17052;SDS011;8643;48.824;11.422;2024-01-06T02:18:21;31.17;;;17.43;;
17052;SDS011;8643;48.824;11.422;2024-01-06T02:20:50;30.67;;;16.67;;
17052;SDS011;8643;48.824;11.422;2024-01-06T02:23:27;39.13;;;19.57;;
17052;SDS011;8643;48.824;11.422;2024-01-06T02:25:56;31.57;;;17.20;;
17052;SDS011;8643;48.824;11.422;2024-01-06T02:28:25;31.23;;;16.83;;
17052;SDS011;8643;48.824;11.422;2024-01-06T02:30:53;30.67;;;17.17;;
17052;SDS011;8643;48.824;11.422;2024-01-06T02:33:22;31.27;;;16.70;;
17052;SDS011;8643;48.824;11.422;2024-01-06T02:35:51;32.00;;;17.30;;
17052;SDS011;8643;48.824;11.422;2024-01-06T02:38:20;33.90;;;17.90;;
17052;SDS011;8643;48.824;11.422;2024-01-06T02:40:50;39.10;;;19.40;;
17052;SDS011;8643;48.824;11.422;2024-01-06T02:43:18;31.87;;;17.93;;
17052;SDS011;8643;48.824;11.422;2024-01-06T02:45:47;36.00;;;19.27;;
17052;SDS011;8643;48.824;11.422;2024-01-06T02:48:15;37.07;;;19.60;;
17052;SDS011;8643;48.824;11.422;2024-01-06T02:50:44;40.63;;;21.20;;
17052;SDS011;8643;48.824;11.422;2024-01-06T02:53:13;40.30;;;20.03;;
17052;SDS011;8643;48.824;11.422;2024-01-06T02:55:41;39.13;;;20.17;;
17052;SDS011;8643;48.824;11.422;2024-01-06T02:58:11;35.83;;;19.80;;
17052;SDS011;8643;48.824;11.422;2024-01-06T03:00:40;35.43;;;19.37;;
17052;SDS011;8643;48.824;11.422;2024-01-06T03:03:09;38.20;;;20.23;;
17052;SDS011;8643;48.824;11.422;2024-01-06T03:05:37;35.87;;;20.23;;
17052;SDS011;8643;48.824;11.422;2024-01-06T03:08:06;35.87;;;19.63;;
17052;SDS011;8643;48.824;11.422;2024-01-06T03:10:34;35.80;;;20.40;;
17052;SDS011;8643;48.824;11.422;2024-01-06T03:13:04;41.10;;;21.00;;
17052;SDS011;8643;48.824;11.422;2024-01-06T03:15:34;37.20;;;20.40;;
17052;SDS011;8643;48.824;11.422;2024-01-06T03:18:02;41.47;;;20.33;;
17052;SDS011;8643;48.824;11.422;2024-01-06T03:20:31;35.47;;;19.73;;
17052;SDS011;8643;48.824;11.422;2024-01-06T03:23:00;35.97;;;20.00;;
17052;SDS011;8643;48.824;11.422;2024-01-06T03:25:28;34.27;;;18.93;;
17052;SDS011;8643;48.824;11.422;2024-01-06T03:27:57;32.80;;;18.60;;
17052;SDS011;8643;48.824;11.422;2024-01-06T03:30:25;33.43;;;18.50;;
17052;SDS011;8643;48.824;11.422;2024-01-06T03:32:55;39.27;;;19.53;;
17052;SDS011;8643;48.824;11.422;2024-01-06T03:35:24;34.53;;;19.50;;
17052;SDS011;8643;48.824;11.422;2024-01-06T03:37:53;35.70;;;18.40;;
17052;SDS011;8643;48.824;11.422;2024-01-06T03:40:21;35.50;;;19.30;;
17052;SDS011;8643;48.824;11.422;2024-01-06T03:42:50;31.30;;;17.90;;
17052;SDS011;8643;48.824;11.422;2024-01-06T03:45:20;33.27;;;17.63;;
17052;SDS011;8643;48.824;11.422;2024-01-06T03:47:48;35.33;;;18.53;;
17052;SDS011;8643;48.824;11.422;2024-01-06T03:50:19;34.17;;;19.43;;
17052;SDS011;8643;48.824;11.422;2024-01-06T03:52:47;35.83;;;19.10;;
17052;SDS011;8643;48.824;11.422;2024-01-06T03:55:16;31.87;;;17.87;;
17052;SDS011;8643;48.824;11.422;2024-01-06T03:57:44;34.87;;;19.97;;
17052;SDS011;8643;48.824;11.422;2024-01-06T04:00:13;35.33;;;19.07;;
17052;SDS011;8643;48.824;11.422;2024-01-06T04:02:43;36.13;;;19.47;;
17052;SDS011;8643;48.824;11.422;2024-01-06T04:05:11;32.43;;;18.97;;
17052;SDS011;8643;48.824;11.422;2024-01-06T04:07:42;33.00;;;17.83;;
17052;SDS011;8643;48.824;11.422;2024-01-06T04:10:10;29.73;;;17.27;;
17052;SDS011;8643;48.824;11.422;2024-01-06T04:12:38;26.73;;;15.87;;
17052;SDS011;8643;48.824;11.422;2024-01-06T04:15:07;28.80;;;15.17;;
17052;SDS011;8643;48.824;11.422;2024-01-06T04:17:36;27.70;;;16.10;;
17052;SDS011;8643;48.824;11.422;2024-01-06T04:20:05;31.17;;;15.50;;
17052;SDS011;8643;48.824;11.422;2024-01-06T04:22:34;23.93;;;13.63;;
17052;SDS011;8643;48.824;11.422;2024-01-06T04:25:04;23.90;;;13.70;;
17052;SDS011;8643;48.824;11.422;2024-01-06T04:27:33;24.20;;;12.67;;
17052;SDS011;8643;48.824;11.422;2024-01-06T04:30:01;24.70;;;12.37;;
17052;SDS011;8643;48.824;11.422;2024-01-06T04:32:30;23.20;;;11.33;;
17052;SDS011;8643;48.824;11.422;2024-01-06T04:34:59;23.23;;;10.90;;
17052;SDS011;8643;48.824;11.422;2024-01-06T04:37:27;22.67;;;10.77;;
17052;SDS011;8643;48.824;11.422;2024-01-06T04:39:56;21.33;;;11.40;;
17052;SDS011;8643;48.824;11.422;2024-01-06T04:42:26;20.73;;;10.87;;
17052;SDS011;8643;48.824;11.422;2024-01-06T04:44:55;20.43;;;10.50;;
17052;SDS011;8643;48.824;11.422;2024-01-06T04:47:23;21.67;;;10.57;;
17052;SDS011;8643;48.824;11.422;2024-01-06T04:49:51;20.80;;;10.57;;
17052;SDS011;8643;48.824;11.422;2024-01-06T04:52:20;18.50;;;10.00;;
17052;SDS011;8643;48.824;11.422;2024-01-06T04:54:49;16.20;;;10.23;;
17052;SDS011;8643;48.824;11.422;2024-01-06T04:57:18;18.57;;;10.00;;
17052;SDS011;8643;48.824;11.422;2024-01-06T04:59:48;17.60;;;9.23;;
17052;SDS011;8643;48.824;11.422;2024-01-06T05:02:16;14.70;;;8.73;;
17052;SDS011;8643;48.824;11.422;2024-01-06T05:04:44;16.67;;;9.27;;
17052;SDS011;8643;48.824;11.422;2024-01-06T05:07:12;16.70;;;8.60;;
17052;SDS011;8643;48.824;11.422;2024-01-06T05:09:41;14.03;;;8.40;;
17052;SDS011;8643;48.824;11.422;2024-01-06T05:12:09;15.83;;;9.03;;
17052;SDS011;8643;48.824;11.422;2024-01-06T05:14:38;17.07;;;8.77;;
17052;SDS011;8643;48.824;11.422;2024-01-06T05:17:07;13.23;;;8.53;;
17052;SDS011;8643;48.824;11.422;2024-01-06T05:19:36;14.07;;;8.53;;
17052;SDS011;8643;48.824;11.422;2024-01-06T05:22:05;15.63;;;7.93;;
17052;SDS011;8643;48.824;11.422;2024-01-06T05:24:33;15.00;;;7.57;;
17052;SDS011;8643;48.824;11.422;2024-01-06T05:27:02;12.63;;;7.57;;
17052;SDS011;8643;48.824;11.422;2024-01-06T05:29:31;13.57;;;7.73;;
17052;SDS011;8643;48.824;11.422;2024-01-06T05:31:59;15.50;;;8.30;;
17052;SDS011;8643;48.824;11.422;2024-01-06T05:34:29;18.40;;;8.17;;
17052;SDS011;8643;48.824;11.422;2024-01-06T05:36:58;13.00;;;7.47;;
17052;SDS011;8643;48.824;11.422;2024-01-06T05:39:26;13.30;;;7.30;;
17052;SDS011;8643;48.824;11.422;2024-01-06T05:41:55;15.00;;;7.10;;
17052;SDS011;8643;48.824;11.422;2024-01-06T05:44:23;16.60;;;7.50;;
17052;SDS011;8643;48.824;11.422;2024-01-06T05:46:52;14.60;;;7.80;;
17052;SDS011;8643;48.824;11.422;2024-01-06T05:49:20;19.77;;;8.10;;
17052;SDS011;8643;48.824;11.422;2024-01-06T05:51:51;12.67;;;6.80;;
17052;SDS011;8643;48.824;11.422;2024-01-06T05:54:20;12.97;;;6.10;;
17052;SDS011;8643;48.824;11.422;2024-01-06T05:56:49;10.17;;;5.90;;
17052;SDS011;8643;48.824;11.422;2024-01-06T05:59:17;9.93;;;6.23;;
17052;SDS011;8643;48.824;11.422;2024-01-06T06:01:46;15.10;;;6.60;;
17052;SDS011;8643;48.824;11.422;2024-01-06T06:04:14;11.03;;;6.37;;
17052;SDS011;8643;48.824;11.422;2024-01-06T06:06:43;13.13;;;6.90;;
17052;SDS011;8643;48.824;11.422;2024-01-06T06:09:13;16.87;;;9.10;;
17052;SDS011;8643;48.824;11.422;2024-01-06T06:11:42;18.93;;;9.00;;
17052;SDS011;8643;48.824;11.422;2024-01-06T06:14:12;16.47;;;8.40;;
17052;SDS011;8643;48.824;11.422;2024-01-06T06:16:40;17.37;;;8.73;;
17052;SDS011;8643;48.824;11.422;2024-01-06T06:19:09;14.20;;;8.73;;
17052;SDS011;8643;48.824;11.422;2024-01-06T06:21:37;17.43;;;9.90;;
17052;SDS011;8643;48.824;11.422;2024-01-06T06:24:06;18.70;;;9.53;;
17052;SDS011;8643;48.824;11.422;2024-01-06T06:26:36;17.07;;;9.30;;
17052;SDS011;8643;48.824;11.422;2024-01-06T06:29:07;19.07;;;10.63;;
17052;SDS011;8643;48.824;11.422;2024-01-06T06:31:36;19.50;;;10.70;;
17052;SDS011;8643;48.824;11.422;2024-01-06T06:34:06;21.90;;;11.20;;
17052;SDS011;8643;48.824;11.422;2024-01-06T06:36:35;23.93;;;13.27;;
17052;SDS011;8643;48.824;11.422;2024-01-06T06:39:04;25.73;;;16.50;;
17052;SDS011;8643;48.824;11.422;2024-01-06T06:41:33;32.50;;;20.43;;
17052;SDS011;8643;48.824;11.422;2024-01-06T06:44:03;28.23;;;16.87;;
17052;SDS011;8643;48.824;11.422;2024-01-06T06:46:32;26.00;;;15.10;;
17052;SDS011;8643;48.824;11.422;2024-01-06T06:49:00;20.40;;;11.97;;
17052;SDS011;8643;48.824;11.422;2024-01-06T06:51:29;19.67;;;11.60;;
17052;SDS011;8643;48.824;11.422;2024-01-06T06:53:57;21.13;;;13.73;;
17052;SDS011;8643;48.824;11.422;2024-01-06T06:56:26;25.83;;;14.40;;
17052;SDS011;8643;48.824;11.422;2024-01-06T06:58:56;26.40;;;14.33;;
17052;SDS011;8643;48.824;11.422;2024-01-06T07:01:24;21.93;;;14.37;;
17052;SDS011;8643;48.824;11.422;2024-01-06T07:03:53;21.83;;;12.20;;
17052;SDS011;8643;48.824;11.422;2024-01-06T07:06:22;18.00;;;10.00;;
17052;SDS011;8643;48.824;11.422;2024-01-06T07:08:51;17.40;;;9.43;;
17052;SDS011;8643;48.824;11.422;2024-01-06T07:11:19;16.63;;;9.63;;
17052;SDS011;8643;48.824;11.422;2024-01-06T07:13:48;16.23;;;9.27;;
17052;SDS011;8643;48.824;11.422;2024-01-06T07:16:18;20.47;;;11.27;;
17052;SDS011;8643;48.824;11.422;2024-01-06T07:18:47;22.33;;;12.63;;
17052;SDS011;8643;48.824;11.422;2024-01-06T07:21:15;19.30;;;11.27;;
17052;SDS011;8643;48.824;11.422;2024-01-06T07:23:44;16.37;;;9.10;;
17052;SDS011;8643;48.824;11.422;2024-01-06T07:26:13;19.07;;;8.13;;
17052;SDS011;8643;48.824;11.422;2024-01-06T07:28:42;14.23;;;7.77;;
17052;SDS011;8643;48.824;11.422;2024-01-06T07:31:10;17.47;;;8.27;;
17052;SDS011;8643;48.824;11.422;2024-01-06T07:33:40;24.60;;;8.33;;
17052;SDS011;8643;48.824;11.422;2024-01-06T07:36:08;14.90;;;8.17;;
17052;SDS011;8643;48.824;11.422;2024-01-06T07:38:37;16.67;;;10.17;;
17052;SDS011;8643;48.824;11.422;2024-01-06T07:41:06;17.87;;;9.93;;
17052;SDS011;8643;48.824;11.422;2024-01-06T07:43:34;24.20;;;11.80;;
17052;SDS011;8643;48.824;11.422;2024-01-06T07:46:03;16.30;;;10.17;;
17052;SDS011;8643;48.824;11.422;2024-01-06T07:48:33;23.87;;;11.57;;
17052;SDS011;8643;48.824;11.422;2024-01-06T07:51:04;24.50;;;12.00;;
17052;SDS011;8643;48.824;11.422;2024-01-06T07:53:32;26.70;;;12.57;;
17052;SDS011;8643;48.824;11.422;2024-01-06T07:56:00;26.90;;;13.03;;
17052;SDS011;8643;48.824;11.422;2024-01-06T07:58:29;21.87;;;11.03;;
17052;SDS011;8643;48.824;11.422;2024-01-06T08:00:59;20.73;;;11.20;;
17052;SDS011;8643;48.824;11.422;2024-01-06T08:03:28;20.17;;;11.90;;
17052;SDS011;8643;48.824;11.422;2024-01-06T08:05:57;20.20;;;11.17;;
17052;SDS011;8643;48.824;11.422;2024-01-06T08:08:27;23.73;;;11.20;;
17052;SDS011;8643;48.824;11.422;2024-01-06T08:10:56;21.40;;;11.17;;
17052;SDS011;8643;48.824;11.422;2024-01-06T08:13:25;23.93;;;11.30;;
17052;SDS011;8643;48.824;11.422;2024-01-06T08:15:53;22.20;;;10.73;;
17052;SDS011;8643;48.824;11.422;2024-01-06T08:18:22;18.60;;;11.23;;
17052;SDS011;8643;48.824;11.422;2024-01-06T08:20:51;18.33;;;11.33;;
17052;SDS011;8643;48.824;11.422;2024-01-06T08:23:19;24.87;;;11.53;;
17052;SDS011;8643;48.824;11.422;2024-01-06T08:25:49;21.40;;;11.53;;
17052;SDS011;8643;48.824;11.422;2024-01-06T08:28:18;20.37;;;12.67;;
17052;SDS011;8643;48.824;11.422;2024-01-06T08:30:49;25.70;;;15.33;;
17052;SDS011;8643;48.824;11.422;2024-01-06T08:33:18;20.63;;;12.37;;
17052;SDS011;8643;48.824;11.422;2024-01-06T08:35:46;19.10;;;11.17;;
17052;SDS011;8643;48.824;11.422;2024-01-06T08:38:15;19.37;;;11.00;;
17052;SDS011;8643;48.824;11.422;2024-01-06T08:40:45;17.17;;;10.20;;
17052;SDS011;8643;48.824;11.422;2024-01-06T08:43:15;20.00;;;10.93;;
17052;SDS011;8643;48.824;11.422;2024-01-06T08:45:45;20.43;;;11.43;;
17052;SDS011;8643;48.824;11.422;2024-01-06T08:48:14;22.80;;;11.63;;
17052;SDS011;8643;48.824;11.422;2024-01-06T08:50:44;17.63;;;11.27;;
17052;SDS011;8643;48.824;11.422;2024-01-06T08:53:13;21.10;;;11.23;;
17052;SDS011;8643;48.824;11.422;2024-01-06T08:55:42;24.77;;;11.27;;
17052;SDS011;8643;48.824;11.422;2024-01-06T08:58:12;20.27;;;13.13;;
17052;SDS011;8643;48.824;11.422;2024-01-06T09:00:43;24.70;;;11.97;;
17052;SDS011;8643;48.824;11.422;2024-01-06T09:03:11;26.37;;;14.30;;
17052;SDS011;8643;48.824;11.422;2024-01-06T09:05:40;30.60;;;17.80;;
17052;SDS011;8643;48.824;11.422;2024-01-06T09:08:09;24.90;;;14.47;;
17052;SDS011;8643;48.824;11.422;2024-01-06T09:10:38;20.27;;;10.77;;
17052;SDS011;8643;48.824;11.422;2024-01-06T09:13:06;23.23;;;10.63;;
17052;SDS011;8643;48.824;11.422;2024-01-06T09:15:35;18.67;;;10.30;;
17052;SDS011;8643;48.824;11.422;2024-01-06T09:18:06;24.67;;;13.50;;
17052;SDS011;8643;48.824;11.422;2024-01-06T09:20:34;27.83;;;13.67;;
17052;SDS011;8643;48.824;11.422;2024-01-06T09:23:03;22.87;;;11.27;;
17052;SDS011;8643;48.824;11.422;2024-01-06T09:25:31;17.40;;;9.40;;
17052;SDS011;8643;48.824;11.422;2024-01-06T09:28:00;15.73;;;9.67;;
17052;SDS011;8643;48.824;11.422;2024-01-06T09:30:29;20.20;;;10.20;;
17052;SDS011;8643;48.824;11.422;2024-01-06T09:32:57;21.17;;;10.57;;
17052;SDS011;8643;48.824;11.422;2024-01-06T09:35:28;20.83;;;9.77;;
17052;SDS011;8643;48.824;11.422;2024-01-06T09:37:56;18.83;;;10.30;;
17052;SDS011;8643;48.824;11.422;2024-01-06T09:40:24;21.30;;;11.80;;
17052;SDS011;8643;48.824;11.422;2024-01-06T09:42:53;18.80;;;11.00;;
17052;SDS011;8643;48.824;11.422;2024-01-06T09:45:22;22.73;;;12.00;;
17052;SDS011;8643;48.824;11.422;2024-01-06T09:47:51;21.13;;;11.87;;
17052;SDS011;8643;48.824;11.422;2024-01-06T09:50:21;17.83;;;10.97;;
17052;SDS011;8643;48.824;11.422;2024-01-06T09:52:51;20.33;;;11.90;;
17052;SDS011;8643;48.824;11.422;2024-01-06T09:55:24;21.37;;;11.43;;
17052;SDS011;8643;48.824;11.422;2024-01-06T09:57:54;19.07;;;11.57;;
17052;SDS011;8643;48.824;11.422;2024-01-06T10:00:23;17.53;;;9.63;;
17052;SDS011;8643;48.824;11.422;2024-01-06T10:02:52;19.50;;;8.87;;
17052;SDS011;8643;48.824;11.422;2024-01-06T10:05:21;21.33;;;9.33;;
17052;SDS011;8643;48.824;11.422;2024-01-06T10:07:51;14.87;;;6.73;;
17052;SDS011;8643;48.824;11.422;2024-01-06T10:10:20;15.63;;;8.43;;
17052;SDS011;8643;48.824;11.422;2024-01-06T10:12:52;14.37;;;7.90;;
17052;SDS011;8643;48.824;11.422;2024-01-06T10:15:22;14.70;;;8.63;;
17052;SDS011;8643;48.824;11.422;2024-01-06T10:17:53;13.60;;;6.83;;
17052;SDS011;8643;48.824;11.422;2024-01-06T10:20:22;9.47;;;6.20;;
17052;SDS011;8643;48.824;11.422;2024-01-06T10:22:52;13.23;;;7.33;;
17052;SDS011;8643;48.824;11.422;2024-01-06T10:25:22;14.67;;;6.57;;
17052;SDS011;8643;48.824;11.422;2024-01-06T10:27:52;14.87;;;7.47;;
17052;SDS011;8643;48.824;11.422;2024-01-06T10:30:21;13.90;;;7.53;;
17052;SDS011;8643;48.824;11.422;2024-01-06T10:32:52;14.83;;;7.67;;
17052;SDS011;8643;48.824;11.422;2024-01-06T10:35:23;12.70;;;6.47;;
17052;SDS011;8643;48.824;11.422;2024-01-06T10:37:54;19.17;;;7.63;;
17052;SDS011;8643;48.824;11.422;2024-01-06T10:40:23;12.37;;;5.63;;
17052;SDS011;8643;48.824;11.422;2024-01-06T10:42:52;10.53;;;5.80;;
17052;SDS011;8643;48.824;11.422;2024-01-06T10:45:24;13.17;;;5.70;;
17052;SDS011;8643;48.824;11.422;2024-01-06T10:47:53;11.20;;;5.80;;
17052;SDS011;8643;48.824;11.422;2024-01-06T10:50:24;10.73;;;5.50;;
17052;SDS011;8643;48.824;11.422;2024-01-06T10:52:57;10.60;;;5.33;;
17052;SDS011;8643;48.824;11.422;2024-01-06T10:55:26;9.60;;;5.90;;
17052;SDS011;8643;48.824;11.422;2024-01-06T10:57:55;13.70;;;5.80;;
17052;SDS011;8643;48.824;11.422;2024-01-06T11:00:26;9.77;;;5.80;;
17052;SDS011;8643;48.824;11.422;2024-01-06T11:02:54;10.93;;;5.70;;
17052;SDS011;8643;48.824;11.422;2024-01-06T11:05:25;6.83;;;4.60;;
17052;SDS011;8643;48.824;11.422;2024-01-06T11:07:55;9.40;;;4.60;;
17052;SDS011;8643;48.824;11.422;2024-01-06T11:10:27;10.20;;;5.37;;
17052;SDS011;8643;48.824;11.422;2024-01-06T11:13:10;9.80;;;4.50;;
17052;SDS011;8643;48.824;11.422;2024-01-06T11:15:41;10.20;;;4.77;;
17052;SDS011;8643;48.824;11.422;2024-01-06T11:21:19;8.47;;;4.53;;
17052;SDS011;8643;48.824;11.422;2024-01-06T11:26:50;11.97;;;4.20;;
17052;SDS011;8643;48.824;11.422;2024-01-06T11:29:20;7.27;;;3.90;;
17052;SDS011;8643;48.824;11.422;2024-01-06T11:34:47;12.07;;;4.73;;
17052;SDS011;8643;48.824;11.422;2024-01-06T11:37:17;11.07;;;4.43;;
17052;SDS011;8643;48.824;11.422;2024-01-06T11:39:51;7.87;;;4.50;;
17052;SDS011;8643;48.824;11.422;2024-01-06T11:42:20;11.50;;;4.50;;
17052;SDS011;8643;48.824;11.422;2024-01-06T11:44:50;11.73;;;3.83;;
17052;SDS011;8643;48.824;11.422;2024-01-06T11:47:19;8.90;;;4.20;;
17052;SDS011;8643;48.824;11.422;2024-01-06T11:49:52;11.03;;;4.00;;
17052;SDS011;8643;48.824;11.422;2024-01-06T11:52:25;7.47;;;3.67;;
17052;SDS011;8643;48.824;11.422;2024-01-06T11:54:56;10.90;;;4.47;;
17052;SDS011;8643;48.824;11.422;2024-01-06T11:57:25;8.13;;;4.33;;
17052;SDS011;8643;48.824;11.422;2024-01-06T11:59:54;8.10;;;4.30;;
17052;SDS011;8643;48.824;11.422;2024-01-06T12:02:23;8.10;;;4.50;;
17052;SDS011;8643;48.824;11.422;2024-01-06T12:04:52;7.60;;;3.80;;
17052;SDS011;8643;48.824;11.422;2024-01-06T12:07:21;7.97;;;3.80;;
17052;SDS011;8643;48.824;11.422;2024-01-06T12:09:50;6.07;;;4.00;;
17052;SDS011;8643;48.824;11.422;2024-01-06T12:12:30;10.00;;;4.50;;
17052;SDS011;8643;48.824;11.422;2024-01-06T12:14:59;9.47;;;4.23;;
17052;SDS011;8643;48.824;11.422;2024-01-06T12:17:29;6.20;;;4.03;;
17052;SDS011;8643;48.824;11.422;2024-01-06T12:19:58;7.23;;;4.27;;
17052;SDS011;8643;48.824;11.422;2024-01-06T12:22:27;8.33;;;4.50;;
17052;SDS011;8643;48.824;11.422;2024-01-06T12:24:56;8.83;;;4.20;;
17052;SDS011;8643;48.824;11.422;2024-01-06T12:27:28;13.20;;;4.23;;
17052;SDS011;8643;48.824;11.422;2024-01-06T12:29:58;7.93;;;4.37;;
17052;SDS011;8643;48.824;11.422;2024-01-06T12:32:27;11.13;;;5.23;;
17052;SDS011;8643;48.824;11.422;2024-01-06T12:34:56;6.73;;;3.97;;
17052;SDS011;8643;48.824;11.422;2024-01-06T12:37:26;11.47;;;5.00;;
17052;SDS011;8643;48.824;11.422;2024-01-06T12:39:56;14.33;;;5.17;;
17052;SDS011;8643;48.824;11.422;2024-01-06T12:42:25;8.70;;;4.90;;
17052;SDS011;8643;48.824;11.422;2024-01-06T12:44:56;11.27;;;4.47;;
17052;SDS011;8643;48.824;11.422;2024-01-06T12:47:24;10.87;;;4.50;;
17052;SDS011;8643;48.824;11.422;2024-01-06T12:49:53;7.43;;;4.13;;
17052;SDS011;8643;48.824;11.422;2024-01-06T12:52:21;8.90;;;4.33;;
17052;SDS011;8643;48.824;11.422;2024-01-06T12:54:50;7.13;;;3.93;;
17052;SDS011;8643;48.824;11.422;2024-01-06T12:57:19;6.53;;;3.97;;
17052;SDS011;8643;48.824;11.422;2024-01-06T12:59:47;7.33;;;3.80;;
17052;SDS011;8643;48.824;11.422;2024-01-06T13:02:17;8.23;;;3.77;;
17052;SDS011;8643;48.824;11.422;2024-01-06T13:04:47;10.53;;;5.20;;
17052;SDS011;8643;48.824;11.422;2024-01-06T13:07:15;12.77;;;4.97;;
17052;SDS011;8643;48.824;11.422;2024-01-06T13:09:44;8.87;;;4.87;;
17052;SDS011;8643;48.824;11.422;2024-01-06T13:12:13;12.63;;;6.70;;
17052;SDS011;8643;48.824;11.422;2024-01-06T13:14:42;9.97;;;5.47;;
17052;SDS011;8643;48.824;11.422;2024-01-06T13:17:10;11.23;;;4.97;;
17052;SDS011;8643;48.824;11.422;2024-01-06T13:19:41;11.70;;;5.70;;
17052;SDS011;8643;48.824;11.422;2024-01-06T13:22:10;8.50;;;5.30;;
17052;SDS011;8643;48.824;11.422;2024-01-06T13:24:39;6.37;;;4.30;;
17052;SDS011;8643;48.824;11.422;2024-01-06T13:27:08;7.33;;;4.03;;
17052;SDS011;8643;48.824;11.422;2024-01-06T13:29:36;6.90;;;3.80;;
17052;SDS011;8643;48.824;11.422;2024-01-06T13:32:05;6.67;;;3.90;;
17052;SDS011;8643;48.824;11.422;2024-01-06T13:34:34;6.00;;;4.20;;
17052;SDS011;8643;48.824;11.422;2024-01-06T13:37:04;8.93;;;4.27;;
17052;SDS011;8643;48.824;11.422;2024-01-06T13:39:33;7.67;;;4.60;;
17052;SDS011;8643;48.824;11.422;2024-01-06T13:42:02;7.40;;;4.70;;
17052;SDS011;8643;48.824;11.422;2024-01-06T13:44:31;8.57;;;4.43;;
17052;SDS011;8643;48.824;11.422;2024-01-06T13:47:00;9.07;;;4.53;;
17052;SDS011;8643;48.824;11.422;2024-01-06T13:49:30;7.43;;;3.97;;
17052;SDS011;8643;48.824;11.422;2024-01-06T13:51:59;7.47;;;4.20;;
17052;SDS011;8643;48.824;11.422;2024-01-06T13:54:30;7.93;;;3.40;;
17052;SDS011;8643;48.824;11.422;2024-01-06T13:56:59;6.53;;;3.20;;
17052;SDS011;8643;48.824;11.422;2024-01-06T13:59:27;6.17;;;3.23;;
17052;SDS011;8643;48.824;11.422;2024-01-06T14:01:56;7.40;;;3.70;;
17052;SDS011;8643;48.824;11.422;2024-01-06T14:04:24;6.43;;;3.27;;
17052;SDS011;8643;48.824;11.422;2024-01-06T14:06:53;7.20;;;3.83;;
17052;SDS011;8643;48.824;11.422;2024-01-06T14:09:26;8.17;;;4.30;;
17052;SDS011;8643;48.824;11.422;2024-01-06T14:11:56;7.03;;;4.50;;
17052;SDS011;8643;48.824;11.422;2024-01-06T14:14:24;11.10;;;5.47;;
17052;SDS011;8643;48.824;11.422;2024-01-06T14:16:53;13.20;;;5.90;;
17052;SDS011;8643;48.824;11.422;2024-01-06T14:19:21;11.30;;;6.57;;
17052;SDS011;8643;48.824;11.422;2024-01-06T14:21:50;8.50;;;5.30;;
17052;SDS011;8643;48.824;11.422;2024-01-06T14:24:19;9.50;;;5.10;;
17052;SDS011;8643;48.824;11.422;2024-01-06T14:26:50;10.10;;;6.03;;
17052;SDS011;8643;48.824;11.422;2024-01-06T14:29:21;11.50;;;6.17;;
17052;SDS011;8643;48.824;11.422;2024-01-06T14:31:49;8.27;;;5.27;;
17052;SDS011;8643;48.824;11.422;2024-01-06T14:34:18;9.40;;;5.47;;
17052;SDS011;8643;48.824;11.422;2024-01-06T14:36:47;9.80;;;5.97;;
17052;SDS011;8643;48.824;11.422;2024-01-06T14:39:16;10.57;;;5.90;;
17052;SDS011;8643;48.824;11.422;2024-01-06T14:41:45;14.20;;;6.87;;
17052;SDS011;8643;48.824;11.422;2024-01-06T14:44:14;12.03;;;6.73;;
17052;SDS011;8643;48.824;11.422;2024-01-06T14:46:45;12.23;;;5.87;;
17052;SDS011;8643;48.824;11.422;2024-01-06T14:49:14;7.57;;;4.87;;
17052;SDS011;8643;48.824;11.422;2024-01-06T14:51:42;13.30;;;6.90;;